Time;durP1;ratioP1;P1;durP2;ratioP2;P2;SDS_P1;SDS_P2;PMS_P1;PMS_P2;Temp;Humidity;BMP_temperature;BMP_pressure;BME280_temperature;BME280_humidity;BME280_pressure;Samples;Min_cycle;Max_cycle;Signal;HPM_P1;HPM_P2
2022/04/25 00:00:37;;;;;;;8.30;4.13;;;4.80;99.90;;;;;;5018517;28;20470;-73
2022/04/25 00:03:03;;;;;;;8.43;4.38;;;4.80;99.90;;;;;;5018439;28;20157;-73
2022/04/25 00:05:28;;;;;;;11.75;4.32;;;4.80;99.90;;;;;;5018484;28;20018;-73
2022/04/25 00:07:54;;;;;;;9.52;3.35;;;4.70;99.90;;;;;;5018657;28;20026;-73
2022/04/25 00:10:20;;;;;;;9.25;3.15;;;4.70;99.90;;;;;;5018481;28;20157;-73
2022/04/25 00:12:46;;;;;;;9.55;3.25;;;4.70;99.90;;;;;;5018647;28;20497;-73
2022/04/25 00:15:12;;;;;;;11.88;3.80;;;4.60;99.90;;;;;;5018357;28;20030;-73
2022/04/25 00:17:38;;;;;;;10.63;3.72;;;4.60;99.90;;;;;;5017852;28;20482;-73
2022/04/25 00:20:05;;;;;;;13.13;3.50;;;4.60;99.90;;;;;;5018347;28;20060;-73
2022/04/25 00:22:31;;;;;;;16.75;4.13;;;4.60;99.90;;;;;;5018613;28;20029;-73
2022/04/25 00:24:56;;;;;;;6.13;3.53;;;4.60;99.90;;;;;;5018250;28;20028;-73
2022/04/25 00:27:22;;;;;;;11.48;3.13;;;4.60;99.90;;;;;;5017381;28;20041;-73
2022/04/25 00:29:48;;;;;;;16.75;3.80;;;4.70;99.90;;;;;;5017879;28;20036;-73
2022/04/25 00:32:13;;;;;;;12.52;3.45;;;4.60;99.90;;;;;;5018384;28;20037;-73
2022/04/25 00:34:39;;;;;;;10.07;4.13;;;4.60;99.90;;;;;;5017953;28;20038;-73
2022/04/25 00:37:04;;;;;;;9.43;3.83;;;4.50;99.90;;;;;;5016397;28;20159;-73
2022/04/25 00:39:30;;;;;;;10.18;3.58;;;4.50;99.90;;;;;;5017513;28;20473;-73
2022/04/25 00:41:57;;;;;;;10.95;3.30;;;4.40;99.90;;;;;;5017812;28;20022;-73
2022/04/25 00:44:23;;;;;;;9.77;3.42;;;4.40;99.90;;;;;;5017828;28;20022;-73
2022/04/25 00:46:51;;;;;;;11.35;4.18;;;4.40;99.90;;;;;;5017638;28;20462;-72
2022/04/25 00:49:17;;;;;;;11.85;3.97;;;4.40;99.90;;;;;;5018542;28;20097;-73
2022/04/25 00:51:43;;;;;;;19.15;4.15;;;4.40;99.90;;;;;;5017515;28;20084;-73
2022/04/25 00:54:09;;;;;;;13.73;3.50;;;4.40;99.90;;;;;;5017893;28;20109;-73
2022/04/25 00:56:35;;;;;;;11.85;3.70;;;4.40;99.90;;;;;;5017616;28;20026;-73
2022/04/25 00:59:01;;;;;;;9.10;3.33;;;4.40;99.90;;;;;;5018087;28;20026;-73
2022/04/25 01:01:28;;;;;;;16.40;3.92;;;4.40;99.90;;;;;;5017523;28;20029;-73
2022/04/25 01:03:54;;;;;;;10.32;4.70;;;4.40;99.90;;;;;;5019466;28;20022;-73
2022/04/25 01:06:20;;;;;;;6.78;3.40;;;4.40;99.90;;;;;;5018175;28;20441;-73
2022/04/25 01:08:45;;;;;;;12.70;3.75;;;4.30;99.90;;;;;;5017436;28;20556;-73
2022/04/25 01:11:13;;;;;;;25.80;4.30;;;4.30;99.90;;;;;;5017576;28;20385;-72
2022/04/25 01:13:39;;;;;;;12.60;4.05;;;4.30;99.90;;;;;;5017007;28;20033;-73
2022/04/25 01:16:05;;;;;;;11.30;3.55;;;4.20;99.90;;;;;;5017528;28;20030;-73
2022/04/25 01:18:30;;;;;;;13.25;4.53;;;4.30;99.90;;;;;;5017484;28;20018;-73
2022/04/25 01:20:57;;;;;;;8.10;4.18;;;4.30;99.90;;;;;;5016882;28;20474;-73
2022/04/25 01:28:52;;;;;;;;;;;4.20;99.90;;;;;;5018171;28;20453;-73
2022/04/25 01:31:18;;;;;;;10.60;3.78;;;4.20;99.90;;;;;;5016990;28;19906;-73
2022/04/25 01:33:43;;;;;;;11.23;3.92;;;4.10;99.90;;;;;;5016778;28;20038;-73
2022/04/25 01:36:09;;;;;;;10.85;3.97;;;4.00;99.90;;;;;;5017200;28;20040;-73
2022/04/25 01:38:34;;;;;;;11.35;3.60;;;4.00;99.90;;;;;;5016887;28;20513;-73
2022/04/25 01:41:00;;;;;;;4.80;3.03;;;3.90;99.90;;;;;;5016833;28;20029;-73
2022/04/25 01:43:25;;;;;;;11.27;3.97;;;3.90;99.90;;;;;;5017494;28;20026;-72
2022/04/25 01:45:51;;;;;;;12.55;3.60;;;3.90;99.90;;;;;;5015352;28;20037;-73
2022/04/25 01:48:17;;;;;;;7.32;3.92;;;3.80;99.90;;;;;;5017090;28;20436;-73
2022/04/25 01:50:42;;;;;;;11.48;3.65;;;3.80;99.90;;;;;;5016887;28;20022;-73
2022/04/25 01:53:08;;;;;;;9.23;3.90;;;3.80;99.90;;;;;;5015225;28;20026;-73
2022/04/25 01:55:34;;;;;;;11.70;3.42;;;3.90;99.90;;;;;;5016659;28;20042;-73
2022/04/25 01:57:59;;;;;;;10.35;3.70;;;3.90;99.90;;;;;;5015868;28;20033;-73
2022/04/25 02:00:25;;;;;;;12.05;4.38;;;3.90;99.90;;;;;;5016465;28;20026;-73
2022/04/25 02:02:50;;;;;;;15.35;4.28;;;3.80;99.90;;;;;;5017152;28;20026;-73
2022/04/25 02:05:16;;;;;;;5.80;3.10;;;3.80;99.90;;;;;;5016136;28;20029;-73
2022/04/25 02:07:41;;;;;;;9.93;3.80;;;3.70;99.90;;;;;;5016311;28;20109;-73
2022/04/25 02:10:07;;;;;;;10.10;3.63;;;3.60;99.90;;;;;;5015942;28;20022;-73
2022/04/25 02:12:34;;;;;;;8.90;3.75;;;3.60;99.90;;;;;;5015692;28;20026;-73
2022/04/25 02:15:00;;;;;;;7.40;3.67;;;3.60;99.90;;;;;;5015759;28;20109;-73
2022/04/25 02:17:26;;;;;;;6.32;3.25;;;3.50;99.90;;;;;;5015641;28;20026;-73
2022/04/25 02:19:51;;;;;;;7.68;3.15;;;3.50;99.90;;;;;;5016253;28;20021;-73
2022/04/25 02:22:17;;;;;;;5.28;3.22;;;3.50;99.90;;;;;;5015649;28;20104;-73
2022/04/25 02:24:43;;;;;;;7.78;4.25;;;3.40;99.90;;;;;;5015781;28;20033;-73
2022/04/25 02:27:09;;;;;;;10.55;3.90;;;3.40;99.90;;;;;;5016015;28;20104;-73
2022/04/25 02:29:39;;;;;;;13.98;4.18;;;3.40;99.90;;;;;;5014235;28;20034;-73
2022/04/25 02:32:05;;;;;;;8.55;3.28;;;3.50;99.90;;;;;;5015844;28;20109;-73
2022/04/25 02:34:31;;;;;;;9.15;3.58;;;3.50;99.90;;;;;;5015344;28;20077;-73
2022/04/25 02:36:57;;;;;;;9.82;4.00;;;3.50;99.90;;;;;;5015627;28;20026;-73
2022/04/25 02:39:24;;;;;;;10.10;3.53;;;3.30;99.90;;;;;;5015514;28;20029;-73
2022/04/25 02:41:51;;;;;;;7.18;2.72;;;3.20;99.90;;;;;;5015758;28;20022;-73
2022/04/25 02:44:17;;;;;;;8.63;3.75;;;3.10;99.90;;;;;;5014083;28;20029;-72
2022/04/25 02:46:43;;;;;;;8.20;3.78;;;3.00;99.90;;;;;;5015827;28;20022;-73
2022/04/25 02:49:08;;;;;;;13.00;3.78;;;3.00;99.90;;;;;;5015532;28;20113;-73
2022/04/25 02:51:34;;;;;;;16.95;4.45;;;3.10;99.90;;;;;;5015331;28;20129;-73
2022/04/25 02:53:59;;;;;;;8.38;3.65;;;3.10;99.90;;;;;;5015337;28;20113;-73
2022/04/25 02:56:25;;;;;;;10.32;4.72;;;3.10;99.90;;;;;;5015302;28;20085;-73
2022/04/25 02:58:51;;;;;;;11.23;4.70;;;3.20;99.90;;;;;;5015113;28;20030;-73
2022/04/25 03:01:16;;;;;;;9.45;5.50;;;3.20;99.90;;;;;;5015722;28;20101;-73
2022/04/25 03:03:42;;;;;;;8.43;4.45;;;3.30;99.90;;;;;;5015905;28;20052;-73
2022/04/25 03:06:09;;;;;;;9.40;5.32;;;3.20;99.90;;;;;;5014620;28;20022;-73
2022/04/25 03:08:35;;;;;;;10.93;5.55;;;3.20;99.90;;;;;;5015166;28;20022;-73
2022/04/25 03:11:03;;;;;;;10.43;5.20;;;3.20;99.90;;;;;;5015708;28;20069;-73
2022/04/25 03:13:29;;;;;;;7.25;4.75;;;3.10;99.90;;;;;;5015328;28;20112;-73
2022/04/25 03:15:54;;;;;;;12.15;5.28;;;3.00;99.90;;;;;;5014076;28;20434;-73
2022/04/25 03:18:22;;;;;;;15.82;5.72;;;2.80;99.90;;;;;;5014930;28;20113;-73
2022/04/25 03:20:50;;;;;;;13.23;5.75;;;2.70;99.90;;;;;;5014938;28;20025;-73
2022/04/25 03:23:25;;;;;;;15.52;5.57;;;2.60;99.90;;;;;;5015046;28;20045;-72
2022/04/25 03:25:52;;;;;;;11.38;5.55;;;2.60;99.90;;;;;;5014059;28;20022;-73
2022/04/25 03:28:19;;;;;;;16.73;5.93;;;2.50;99.90;;;;;;5014962;28;20390;-73
2022/04/25 03:30:44;;;;;;;14.05;5.93;;;2.40;99.90;;;;;;5014967;28;20550;-73
2022/04/25 03:33:13;;;;;;;15.50;6.22;;;2.30;99.90;;;;;;5015135;28;20033;-73
2022/04/25 03:35:45;;;;;;;10.98;5.43;;;2.20;99.90;;;;;;5015114;28;20033;-72
2022/04/25 03:38:11;;;;;;;9.63;4.70;;;2.10;99.90;;;;;;5015245;28;20026;-73
2022/04/25 03:40:37;;;;;;;14.32;5.90;;;2.10;99.90;;;;;;5015089;28;20022;-73
2022/04/25 03:43:09;;;;;;;10.18;5.43;;;2.00;99.90;;;;;;5013537;28;20033;-73
2022/04/25 03:45:35;;;;;;;8.77;4.85;;;1.90;99.90;;;;;;5014392;28;20053;-73
2022/04/25 03:48:01;;;;;;;13.70;6.50;;;1.90;99.90;;;;;;5015255;28;20431;-73
2022/04/25 03:50:26;;;;;;;10.40;5.55;;;1.80;99.90;;;;;;5015172;28;20520;-73
2022/04/25 03:52:52;;;;;;;17.10;5.85;;;1.70;99.90;;;;;;5014472;28;20034;-73
2022/04/25 03:58:04;;;;;;;18.77;6.50;;;1.70;99.90;;;;;;5015203;28;20032;-73
2022/04/25 04:00:31;;;;;;;13.65;5.85;;;1.70;99.90;;;;;;5014855;28;20026;-73
2022/04/25 04:02:58;;;;;;;15.50;7.10;;;1.70;99.90;;;;;;5014958;28;20029;-73
2022/04/25 04:05:24;;;;;;;11.35;7.05;;;1.80;99.90;;;;;;5013883;28;20101;-73
2022/04/25 04:07:50;;;;;;;9.90;6.78;;;1.80;99.90;;;;;;5014989;28;20029;-73
2022/04/25 04:10:17;;;;;;;14.65;6.82;;;1.80;99.90;;;;;;5014599;28;20022;-73
2022/04/25 04:12:46;;;;;;;22.90;8.15;;;1.70;99.90;;;;;;5014909;28;20026;-73
2022/04/25 04:15:12;;;;;;;13.57;6.60;;;1.70;99.90;;;;;;5014243;28;20029;-73
2022/04/25 04:17:37;;;;;;;16.02;7.75;;;1.80;99.90;;;;;;5014605;28;20050;-73
2022/04/25 04:20:04;;;;;;;15.52;6.20;;;1.70;99.90;;;;;;5014340;28;20061;-73
2022/04/25 04:22:31;;;;;;;9.52;5.95;;;1.70;99.90;;;;;;5014586;28;20029;-73
2022/04/25 04:25:01;;;;;;;15.93;7.60;;;1.60;99.90;;;;;;5014013;28;20022;-73
2022/04/25 04:27:29;;;;;;;18.55;7.28;;;1.60;99.90;;;;;;5015089;28;20385;-73
2022/04/25 04:29:55;;;;;;;11.00;6.93;;;1.60;99.90;;;;;;5013285;28;20061;-73
2022/04/25 04:32:21;;;;;;;26.45;7.63;;;1.60;99.90;;;;;;5014542;28;20084;-73
2022/04/25 04:34:46;;;;;;;29.02;7.05;;;1.80;99.90;;;;;;5013917;28;20042;-73
2022/04/25 04:37:12;;;;;;;19.08;6.85;;;1.80;99.90;;;;;;5014509;28;20038;-73
2022/04/25 04:39:37;;;;;;;13.80;7.75;;;1.90;99.90;;;;;;5014436;28;20041;-73
2022/04/25 04:42:03;;;;;;;13.80;7.30;;;2.00;99.90;;;;;;5018865;28;20037;-73
2022/04/25 04:44:28;;;;;;;12.88;7.30;;;2.10;99.90;;;;;;5017746;28;20022;-73
2022/04/25 04:46:54;;;;;;;12.30;7.38;;;2.20;99.90;;;;;;5017612;28;20025;-73
2022/04/25 04:49:19;;;;;;;19.88;7.68;;;2.20;99.90;;;;;;5017716;28;20113;-73
2022/04/25 04:51:45;;;;;;;17.20;7.45;;;2.20;99.90;;;;;;5017778;28;20057;-73
2022/04/25 04:54:11;;;;;;;25.25;6.53;;;2.30;99.90;;;;;;5017549;28;20080;-73
2022/04/25 04:56:36;;;;;;;21.92;7.72;;;2.30;99.90;;;;;;5017615;28;20079;-73
2022/04/25 04:59:02;;;;;;;13.55;7.10;;;2.40;99.90;;;;;;5017352;28;20033;-73
2022/04/25 05:01:28;;;;;;;19.02;7.32;;;2.50;99.90;;;;;;5017400;28;20033;-73
2022/04/25 05:03:58;;;;;;;17.10;6.78;;;2.50;99.90;;;;;;5017806;28;20026;-73
2022/04/25 05:06:24;;;;;;;18.10;7.38;;;2.60;99.90;;;;;;5017493;28;20409;-73
2022/04/25 05:08:50;;;;;;;14.55;8.13;;;2.70;99.90;;;;;;5017585;28;20493;-73
2022/04/25 05:11:15;;;;;;;20.15;8.23;;;2.80;99.90;;;;;;5015523;28;20030;-73
2022/04/25 05:13:44;;;;;;;13.63;7.43;;;3.00;99.90;;;;;;5017220;28;20037;-73
2022/04/25 05:16:10;;;;;;;21.92;8.30;;;3.10;99.90;;;;;;5015633;28;20049;-73
2022/04/25 05:18:35;;;;;;;21.13;6.85;;;3.40;99.90;;;;;;5015810;28;20493;-73
2022/04/25 05:21:02;;;;;;;18.42;8.73;;;3.60;99.90;;;;;;5016938;28;20071;-73
2022/04/25 05:23:28;;;;;;;14.45;6.90;;;3.70;99.90;;;;;;5017144;28;20057;-73
2022/04/25 05:25:57;;;;;;;16.15;7.60;;;3.80;99.90;;;;;;5017324;28;20057;-73
2022/04/25 05:28:22;;;;;;;17.67;7.55;;;3.90;99.90;;;;;;5017226;28;20022;-73
2022/04/25 05:30:49;;;;;;;18.42;7.53;;;4.00;99.90;;;;;;5017120;28;20022;-73
2022/04/25 05:33:17;;;;;;;15.05;7.25;;;4.10;99.90;;;;;;5017020;28;20037;-73
2022/04/25 05:35:43;;;;;;;12.93;7.05;;;4.30;99.90;;;;;;5016175;28;20038;-73
2022/04/25 05:38:10;;;;;;;12.48;8.02;;;4.50;99.90;;;;;;5016414;28;20109;-73
2022/04/25 05:40:36;;;;;;;21.00;7.80;;;4.60;99.90;;;;;;5016241;28;20022;-72
2022/04/25 05:43:03;;;;;;;17.27;7.13;;;4.80;99.90;;;;;;5016149;28;20075;-72
2022/04/25 05:45:29;;;;;;;16.38;8.40;;;4.90;99.90;;;;;;5015812;28;20022;-72
2022/04/25 05:47:57;;;;;;;21.85;9.25;;;5.10;99.90;;;;;;5015704;28;20026;-71
2022/04/25 05:53:07;;;;;;;10.43;6.05;;;5.50;99.90;;;;;;5016072;28;20393;-72
2022/04/25 05:55:33;;;;;;;13.07;6.32;;;5.60;99.90;;;;;;5015672;28;20026;-72
2022/04/25 05:58:03;;;;;;;12.60;5.03;;;5.70;99.90;;;;;;5015211;28;20389;-72
2022/04/25 06:00:30;;;;;;;19.15;6.47;;;5.90;99.90;;;;;;5015611;28;20068;-71
2022/04/25 06:02:56;;;;;;;14.85;5.55;;;6.10;99.90;;;;;;5015753;28;20478;-72
2022/04/25 06:05:21;;;;;;;9.95;5.20;;;6.30;99.90;;;;;;5014249;28;20033;-72
2022/04/25 06:07:48;;;;;;;19.13;5.80;;;6.40;99.90;;;;;;5015436;28;20065;-72
2022/04/25 06:10:16;;;;;;;10.02;4.90;;;6.50;99.90;;;;;;5014283;28;20025;-72
2022/04/25 06:12:44;;;;;;;16.35;5.38;;;6.60;99.90;;;;;;5015017;28;20542;-72
2022/04/25 06:15:10;;;;;;;15.82;5.15;;;6.90;99.90;;;;;;5015330;28;20397;-74
2022/04/25 06:17:36;;;;;;;8.05;5.13;;;7.00;99.90;;;;;;5015267;28;20032;-74
2022/04/25 06:20:04;;;;;;;7.30;4.25;;;7.20;99.90;;;;;;5014779;28;20033;-73
2022/04/25 06:22:30;;;;;;;14.85;4.82;;;7.40;99.90;;;;;;5015320;28;20018;-73
2022/04/25 06:24:55;;;;;;;9.20;5.30;;;7.60;99.90;;;;;;5015159;28;20474;-73
2022/04/25 06:27:21;;;;;;;11.43;4.40;;;7.70;99.90;;;;;;5015116;28;20061;-73
2022/04/25 06:29:46;;;;;;;7.90;4.22;;;7.90;99.90;;;;;;5015062;28;20021;-73
2022/04/25 06:32:13;;;;;;;18.73;3.95;;;8.00;99.90;;;;;;5015211;28;20033;-73
2022/04/25 06:34:39;;;;;;;9.80;4.10;;;8.20;99.90;;;;;;5014934;28;20116;-73
2022/04/25 06:37:05;;;;;;;10.77;4.10;;;8.40;99.90;;;;;;5015020;28;20100;-73
2022/04/25 06:39:31;;;;;;;7.63;3.95;;;8.60;99.90;;;;;;5015136;28;20480;-72
2022/04/25 06:41:57;;;;;;;9.32;4.20;;;8.70;99.90;;;;;;5015056;28;20074;-73
2022/04/25 06:44:27;;;;;;;6.43;3.95;;;8.90;99.90;;;;;;5015132;28;20105;-73
2022/04/25 06:47:00;;;;;;;7.25;3.42;;;9.10;99.90;;;;;;5014049;28;20022;-73
2022/04/25 06:49:27;;;;;;;11.57;3.13;;;9.20;99.90;;;;;;5015571;28;20026;-73
2022/04/25 06:52:09;;;;;;;6.38;3.13;;;9.30;99.90;;;;;;5015113;28;20486;-73
2022/04/25 06:54:35;;;;;;;8.85;3.47;;;9.50;99.90;;;;;;5011616;23;20046;-73
2022/04/25 06:57:02;;;;;;;9.32;3.70;;;9.70;99.90;;;;;;4995058;28;20024;-73
2022/04/25 06:59:27;;;;;;;7.22;3.95;;;9.80;99.90;;;;;;4994590;28;20495;-73
2022/04/25 07:01:53;;;;;;;5.32;3.38;;;9.90;99.90;;;;;;4995042;28;20034;-73
2022/04/25 07:04:20;;;;;;;5.78;3.20;;;10.00;99.90;;;;;;5003837;28;20030;-72
2022/04/25 07:06:46;;;;;;;5.55;2.92;;;10.00;99.90;;;;;;5014884;28;20022;-73
2022/04/25 07:09:15;;;;;;;6.88;3.20;;;10.10;99.90;;;;;;5013879;28;20438;-72
2022/04/25 07:11:44;;;;;;;8.18;3.10;;;10.20;99.90;;;;;;5014436;28;20025;-73
2022/04/25 07:14:15;;;;;;;15.13;4.68;;;10.40;99.90;;;;;;5014235;28;20030;-73
2022/04/25 07:16:45;;;;;;;4.40;3.08;;;10.60;99.90;;;;;;5014275;28;20030;-73
2022/04/25 07:19:11;;;;;;;5.35;2.97;;;10.80;99.90;;;;;;5012379;28;20034;-73
2022/04/25 07:29:49;;;;;;;;;;;11.60;99.90;;;;;;5014923;28;20084;-73
2022/04/25 07:32:15;;;;;;;7.30;3.47;;;11.50;99.90;;;;;;5014039;28;19905;-72
2022/04/25 07:34:43;;;;;;;9.90;3.05;;;11.50;99.90;;;;;;5013949;28;20048;-72
2022/04/25 07:37:09;;;;;;;6.75;3.50;;;11.40;99.90;;;;;;5014684;28;20079;-73
2022/04/25 07:39:35;;;;;;;10.05;4.20;;;11.40;99.90;;;;;;5014216;28;20053;-72
2022/04/25 07:42:00;;;;;;;5.32;3.03;;;11.60;99.90;;;;;;5013281;28;20034;-72
2022/04/25 07:44:26;;;;;;;10.05;3.92;;;11.80;99.90;;;;;;5013749;28;20029;-73
2022/04/25 07:46:53;;;;;;;5.25;3.22;;;12.10;99.90;;;;;;5013882;28;20022;-73
2022/04/25 07:49:18;;;;;;;8.93;3.63;;;12.30;99.90;;;;;;5014029;28;20081;-74
2022/04/25 07:51:44;;;;;;;11.30;3.33;;;12.40;99.90;;;;;;5013794;28;20021;-73
2022/04/25 07:54:09;;;;;;;2.72;2.45;;;12.70;99.90;;;;;;5013140;28;20045;-73
2022/04/25 07:56:36;;;;;;;6.00;2.97;;;12.90;99.90;;;;;;5014265;28;20021;-73
2022/04/25 07:59:02;;;;;;;8.00;2.88;;;12.90;99.90;;;;;;5013732;28;20022;-73
2022/04/25 08:01:29;;;;;;;9.10;3.33;;;13.00;99.90;;;;;;5013849;28;20029;-71
2022/04/25 08:03:55;;;;;;;4.18;3.00;;;13.20;99.90;;;;;;5013567;28;20029;-71
2022/04/25 08:06:21;;;;;;;4.05;3.00;;;13.30;99.90;;;;;;5013038;28;20026;-72
2022/04/25 08:08:50;;;;;;;4.13;2.90;;;13.50;99.90;;;;;;5014203;28;20025;-72
2022/04/25 08:11:17;;;;;;;3.83;2.85;;;13.50;99.90;;;;;;5013454;28;20061;-72
2022/04/25 08:19:13;;;;;;;5.00;2.67;;;13.70;99.90;;;;;;5017230;28;20079;-72
2022/04/25 08:21:42;;;;;;;5.82;3.13;;;13.60;99.90;;;;;;5017245;28;20466;-71
2022/04/25 08:24:08;;;;;;;4.68;2.47;;;13.60;99.90;;;;;;5017198;28;20033;-71
2022/04/25 08:26:34;;;;;;;5.15;2.47;;;13.70;99.90;;;;;;5016668;28;20082;-71
2022/04/25 08:29:00;;;;;;;3.10;2.60;;;13.80;99.90;;;;;;5017253;28;20030;-72
2022/04/25 08:31:29;;;;;;;4.50;2.75;;;13.80;99.90;;;;;;5017454;28;20107;-71
2022/04/25 08:33:56;;;;;;;3.63;2.55;;;13.70;99.90;;;;;;5015908;28;20406;-71
2022/04/25 08:36:21;;;;;;;4.40;2.90;;;13.80;99.90;;;;;;5017697;28;20597;-73
2022/04/25 08:38:47;;;;;;;3.13;2.83;;;13.70;99.90;;;;;;5016978;28;20100;-71
2022/04/25 08:41:15;;;;;;;10.15;2.90;;;13.70;99.90;;;;;;5016216;28;20030;-70
2022/04/25 08:43:42;;;;;;;23.13;3.17;;;14.10;99.90;;;;;;5017098;28;20032;-71
2022/04/25 08:46:09;;;;;;;3.67;2.78;;;14.10;99.90;;;;;;5016937;28;20383;-71
2022/04/25 08:48:38;;;;;;;3.63;2.42;;;14.20;99.90;;;;;;5016066;28;20018;-70
2022/04/25 08:51:05;;;;;;;3.40;2.60;;;14.30;99.90;;;;;;5016931;28;20033;-71
2022/04/25 08:53:35;;;;;;;5.45;2.58;;;14.40;99.90;;;;;;5016870;28;20029;-71
2022/04/25 08:56:03;;;;;;;7.53;2.78;;;14.60;99.90;;;;;;5016514;28;20026;-71
2022/04/25 08:58:33;;;;;;;3.60;2.60;;;14.70;99.90;;;;;;5016433;28;20065;-71
2022/04/25 09:00:59;;;;;;;4.57;3.05;;;15.00;99.90;;;;;;5016948;28;20029;-71
2022/04/25 09:03:25;;;;;;;3.90;2.10;;;15.10;99.90;;;;;;5015747;28;20026;-71
2022/04/25 09:05:51;;;;;;;4.53;2.67;;;15.20;99.90;;;;;;5016465;28;20022;-71
2022/04/25 09:08:17;;;;;;;4.07;2.80;;;15.10;99.90;;;;;;5016420;28;20018;-71
2022/04/25 09:10:44;;;;;;;4.28;3.03;;;15.10;99.90;;;;;;5017636;28;20029;-71
2022/04/25 09:13:11;;;;;;;5.30;3.38;;;15.20;99.90;;;;;;5019167;28;20105;-71
2022/04/25 09:15:37;;;;;;;5.10;3.08;;;15.40;99.90;;;;;;5016635;28;20573;-71
2022/04/25 09:18:03;;;;;;;5.80;2.97;;;15.60;99.90;;;;;;5016323;28;20026;-72
2022/04/25 09:20:29;;;;;;;4.97;2.92;;;15.70;99.90;;;;;;5015928;28;20466;-71
2022/04/25 09:22:55;;;;;;;4.65;3.08;;;15.60;99.90;;;;;;5016081;28;20088;-72
2022/04/25 09:25:21;;;;;;;5.43;2.58;;;15.70;99.90;;;;;;5015687;28;20033;-71
2022/04/25 09:27:47;;;;;;;5.10;2.80;;;15.90;99.90;;;;;;5013933;28;20037;-71
2022/04/25 09:30:23;;;;;;;7.97;3.13;;;15.60;99.90;;;;;;5015385;28;20026;-71
2022/04/25 09:32:52;;;;;;;6.07;3.72;;;15.30;99.90;;;;;;5015507;28;20041;-71
2022/04/25 09:35:37;;;;;;;4.78;3.20;;;15.60;99.90;;;;;;5015700;28;20061;-71
2022/04/25 09:38:08;;;;;;;5.55;3.08;;;16.20;99.90;;;;;;5015316;28;20018;-71
2022/04/25 09:40:35;;;;;;;5.32;2.10;;;16.20;99.90;;;;;;5015557;28;20189;-71
2022/04/25 09:43:11;;;;;;;11.45;2.85;;;15.90;99.90;;;;;;5015473;28;20018;-70
2022/04/25 09:45:42;;;;;;;3.80;1.83;;;15.50;99.90;;;;;;5014121;28;20022;-70
2022/04/25 09:48:12;;;;;;;4.93;2.85;;;15.70;99.90;;;;;;5014895;28;20092;-70
2022/04/25 09:50:39;;;;;;;5.10;2.75;;;16.10;99.90;;;;;;5015848;28;20026;-71
2022/04/25 09:53:06;;;;;;;4.07;2.08;;;16.50;99.90;;;;;;5015315;28;20034;-71
2022/04/25 09:55:35;;;;;;;10.32;2.47;;;16.60;99.90;;;;;;5015079;28;20049;-70
2022/04/25 09:58:18;;;;;;;7.57;2.70;;;16.70;99.90;;;;;;5014983;28;20022;-71
2022/04/25 10:00:44;;;;;;;6.60;3.10;;;16.80;99.90;;;;;;5015472;28;20359;-71
2022/04/25 10:03:10;;;;;;;7.55;2.67;;;17.10;99.90;;;;;;5015205;28;20102;-71
2022/04/25 10:05:42;;;;;;;7.97;2.80;;;17.20;99.90;;;;;;5015032;28;20036;-71
2022/04/25 10:08:09;;;;;;;6.75;3.72;;;17.40;99.90;;;;;;5015321;28;20478;-71
2022/04/25 10:10:41;;;;;;;3.78;2.70;;;17.90;99.90;;;;;;5015073;28;20438;-71
2022/04/25 10:13:08;;;;;;;6.38;3.30;;;18.10;99.90;;;;;;5014684;28;20084;-75
2022/04/25 10:15:36;;;;;;;10.82;3.13;;;18.10;99.90;;;;;;5013479;28;20026;-70
2022/04/25 10:18:06;;;;;;;5.03;2.92;;;18.50;99.90;;;;;;5015056;28;20463;-71
2022/04/25 10:20:34;;;;;;;4.97;2.83;;;18.70;99.90;;;;;;5015016;28;20101;-71
2022/04/25 10:23:01;;;;;;;8.23;3.55;;;19.00;99.90;;;;;;5014225;28;20101;-71
2022/04/25 10:25:27;;;;;;;4.40;2.60;;;18.90;99.90;;;;;;5014717;28;20029;-71
2022/04/25 10:27:53;;;;;;;4.18;3.40;;;18.60;99.90;;;;;;5014952;28;20022;-70
2022/04/25 10:30:20;;;;;;;7.18;3.10;;;18.70;99.90;;;;;;5014855;28;20041;-71
2022/04/25 10:32:46;;;;;;;7.80;3.67;;;18.90;99.90;;;;;;5014130;28;20030;-71
2022/04/25 10:35:29;;;;;;;7.15;3.55;;;19.00;99.90;;;;;;5014783;28;20397;-71
2022/04/25 10:37:55;;;;;;;13.85;3.35;;;19.10;99.90;;;;;;5014106;28;20037;-71
2022/04/25 10:46:13;;;;;;;6.18;2.92;;;19.50;99.90;;;;;;5014861;28;20417;-71
2022/04/25 10:49:05;;;;;;;6.50;3.13;;;19.40;99.10;;;;;;5013859;28;20084;-71
2022/04/25 10:51:41;;;;;;;4.18;3.05;;;19.60;96.40;;;;;;5014400;28;20025;-71
2022/04/25 10:54:08;;;;;;;5.15;3.40;;;20.10;99.90;;;;;;5014256;28;20027;-71
2022/04/25 10:56:35;;;;;;;6.65;3.63;;;20.20;96.70;;;;;;5014759;28;20049;-71
2022/04/25 10:59:26;;;;;;;8.18;3.35;;;19.80;96.20;;;;;;5014361;28;20029;-71
2022/04/25 11:01:53;;;;;;;5.80;3.17;;;18.50;95.80;;;;;;5013527;28;20026;-71
2022/04/25 11:04:20;;;;;;;6.78;3.28;;;17.30;96.40;;;;;;5014742;28;20021;-71
2022/04/25 11:06:47;;;;;;;4.82;3.10;;;16.80;99.80;;;;;;5014133;28;20467;-69
2022/04/25 11:09:41;;;;;;;9.15;3.63;;;16.50;99.90;;;;;;5014356;28;20030;-70
2022/04/25 11:12:07;;;;;;;18.42;3.58;;;16.10;99.90;;;;;;5013924;28;20026;-71
2022/04/25 11:14:33;;;;;;;5.28;3.58;;;16.30;99.90;;;;;;5013495;28;20076;-71
2022/04/25 11:17:11;;;;;;;7.05;3.97;;;17.20;99.90;;;;;;5014393;28;20360;-71
2022/04/25 11:19:57;;;;;;;6.20;3.10;;;18.10;99.90;;;;;;5013981;28;20105;-71
2022/04/25 11:22:41;;;;;;;4.35;3.10;;;18.70;99.90;;;;;;5013796;28;20025;-71
2022/04/25 11:25:25;;;;;;;4.95;3.40;;;19.10;98.80;;;;;;5013915;28;20125;-71
2022/04/25 11:28:04;;;;;;;4.30;3.47;;;19.10;97.70;;;;;;5013343;28;20101;-71
2022/04/25 11:30:31;;;;;;;11.02;2.55;;;18.80;96.10;;;;;;5014173;28;20029;-71
2022/04/25 11:33:02;;;;;;;9.18;3.03;;;18.80;95.10;;;;;;5013967;28;20486;-71
2022/04/25 11:35:28;;;;;;;5.32;2.47;;;18.80;92.20;;;;;;5016290;28;20509;-70
2022/04/25 11:37:57;;;;;;;6.22;3.00;;;18.60;93.80;;;;;;5015550;28;20034;-72
2022/04/25 11:40:23;;;;;;;4.88;3.10;;;18.20;96.00;;;;;;5013151;28;20478;-71
2022/04/25 11:42:49;;;;;;;7.18;3.33;;;18.10;95.90;;;;;;5013686;28;20037;-71
2022/04/25 11:45:14;;;;;;;11.15;3.55;;;18.00;93.20;;;;;;5013599;28;20026;-72
2022/04/25 11:47:40;;;;;;;4.38;2.90;;;17.90;93.30;;;;;;5013646;28;20026;-72
2022/04/25 11:50:10;;;;;;;3.85;2.55;;;18.30;94.10;;;;;;5015644;28;20033;-71
2022/04/25 11:52:47;;;;;;;7.93;3.10;;;18.10;93.50;;;;;;5017655;28;20437;-71
2022/04/25 11:55:15;;;;;;;4.15;3.38;;;17.50;95.90;;;;;;5017331;28;20034;-71
2022/04/25 11:57:42;;;;;;;11.48;4.30;;;17.10;96.80;;;;;;5017480;28;20026;-71
2022/04/25 12:00:11;;;;;;;5.43;3.80;;;16.50;96.10;;;;;;5017677;28;20034;-71
2022/04/25 12:02:37;;;;;;;6.25;3.90;;;16.00;97.80;;;;;;5017013;28;20022;-72
2022/04/25 12:05:04;;;;;;;5.63;3.30;;;15.80;99.10;;;;;;5017391;28;20025;-72
2022/04/25 12:07:30;;;;;;;5.45;3.13;;;15.90;98.70;;;;;;5017505;28;20021;-72
2022/04/25 12:15:34;;;;;;;4.38;3.42;;;17.30;98.00;;;;;;5016916;28;20036;-72
2022/04/25 12:18:18;;;;;;;7.32;3.17;;;18.00;96.10;;;;;;5017325;28;20097;-72
2022/04/25 12:20:49;;;;;;;6.82;2.88;;;19.40;95.70;;;;;;5017039;28;20068;-71
2022/04/25 12:23:27;;;;;;;5.32;3.20;;;20.00;95.00;;;;;;5017044;28;20018;-72
2022/04/25 12:25:53;;;;;;;3.45;2.72;;;20.80;91.50;;;;;;5017241;28;20112;-72
2022/04/25 12:28:25;;;;;;;6.20;3.03;;;21.50;85.40;;;;;;5016596;28;20026;-72
2022/04/25 12:30:59;;;;;;;3.17;2.67;;;22.50;91.60;;;;;;5017070;28;20100;-72
2022/04/25 12:33:46;;;;;;;6.88;2.58;;;23.70;81.80;;;;;;5015594;28;20036;-72
2022/04/25 12:36:16;;;;;;;11.23;2.78;;;23.70;79.20;;;;;;5016426;28;20556;-70
2022/04/25 12:39:00;;;;;;;7.18;2.67;;;23.10;79.00;;;;;;5017067;28;20026;-70
2022/04/25 12:41:33;;;;;;;17.80;2.85;;;22.50;78.40;;;;;;5016929;28;20489;-70
2022/04/25 12:44:11;;;;;;;8.15;3.70;;;20.60;78.80;;;;;;5016256;28;20127;-70
2022/04/25 12:46:41;;;;;;;7.05;3.20;;;19.10;80.60;;;;;;5016777;28;20386;-70
2022/04/25 12:49:11;;;;;;;7.47;3.55;;;18.20;84.20;;;;;;5017126;28;20474;-69
2022/04/25 12:51:47;;;;;;;8.45;3.60;;;17.20;90.00;;;;;;5016585;28;20344;-71
2022/04/25 12:54:41;;;;;;;5.85;3.50;;;16.80;90.10;;;;;;5016944;28;20379;-71
2022/04/25 12:57:22;;;;;;;6.60;3.63;;;16.50;91.10;;;;;;5016237;28;20381;-70
2022/04/25 12:59:53;;;;;;;3.30;2.70;;;16.30;90.70;;;;;;5016566;28;20057;-70
2022/04/25 13:02:21;;;;;;;4.97;2.80;;;16.30;90.60;;;;;;5016154;28;20389;-70
2022/04/25 13:04:54;;;;;;;4.90;3.00;;;16.40;90.70;;;;;;5016382;28;20076;-70
2022/04/25 13:07:30;;;;;;;10.05;3.50;;;16.60;89.60;;;;;;5015953;28;20072;-70
2022/04/25 13:09:58;;;;;;;3.53;3.10;;;16.80;85.40;;;;;;5016121;28;20080;-70
2022/04/25 13:12:37;;;;;;;7.43;2.97;;;16.80;91.00;;;;;;5016333;28;20069;-70
2022/04/25 13:15:12;;;;;;;5.80;3.20;;;17.40;86.70;;;;;;5016348;28;20081;-70
2022/04/25 13:17:39;;;;;;;4.32;2.97;;;18.30;88.40;;;;;;5016055;28;20097;-70
2022/04/25 13:20:06;;;;;;;7.70;2.92;;;20.50;90.00;;;;;;5016669;28;20089;-71
2022/04/25 13:22:33;;;;;;;3.00;2.45;;;21.60;82.40;;;;;;5015786;28;20057;-71
2022/04/25 13:24:59;;;;;;;5.28;2.33;;;22.40;74.10;;;;;;5015935;28;20026;-71
2022/04/25 13:27:25;;;;;;;5.95;3.15;;;22.20;74.70;;;;;;5015896;28;20029;-71